createdAt,value
2022-12-01T00:00:17.138Z,47.97
2022-12-01T00:02:45.603Z,48.17
2022-12-01T00:05:14.027Z,51.43
2022-12-01T00:07:43.904Z,57.27
2022-12-01T00:10:27.434Z,52.67
2022-12-01T00:12:56.275Z,52.50
2022-12-01T00:15:25.040Z,49.50
2022-12-01T00:17:53.462Z,52.90
2022-12-01T00:20:21.797Z,53.40
2022-12-01T00:22:51.594Z,50.77
2022-12-01T00:25:20.256Z,52.57
2022-12-01T00:27:49.995Z,52.00
2022-12-01T00:30:18.427Z,55.67
2022-12-01T00:32:46.879Z,48.00
2022-12-01T00:35:15.216Z,51.73
2022-12-01T00:37:46.719Z,53.03
2022-12-01T00:40:16.829Z,58.00
2022-12-01T00:42:45.216Z,53.93
2022-12-01T00:45:13.690Z,56.17
2022-12-01T00:47:42.169Z,58.43
2022-12-01T00:50:11.080Z,57.07
2022-12-01T00:52:39.585Z,62.20
2022-12-01T00:55:08.675Z,60.07
2022-12-01T00:57:38.560Z,61.00
2022-12-01T01:00:07.455Z,58.27
2022-12-01T01:02:36.068Z,63.63
2022-12-01T01:05:04.537Z,59.40
2022-12-01T01:07:33.059Z,64.67
2022-12-01T01:10:01.531Z,57.90
2022-12-01T01:12:29.918Z,64.97
2022-12-01T01:14:59.808Z,64.93
2022-12-01T01:17:28.217Z,63.23
2022-12-01T01:19:56.652Z,65.27
2022-12-01T01:22:25.013Z,59.63
2022-12-01T01:24:53.398Z,62.43
2022-12-01T01:27:21.788Z,66.67
2022-12-01T01:29:50.371Z,61.47
2022-12-01T01:32:20.287Z,70.33
2022-12-01T01:34:48.704Z,66.23
2022-12-01T01:37:17.132Z,70.93
2022-12-01T01:39:45.661Z,72.23
2022-12-01T01:42:14.878Z,71.23
2022-12-01T01:44:50.406Z,67.90
2022-12-01T01:47:21.471Z,74.43
2022-12-01T01:49:50.261Z,70.57
2022-12-01T01:52:18.842Z,72.90
2022-12-01T01:54:49.567Z,67.90
2022-12-01T01:57:19.025Z,70.23
2022-12-01T01:59:47.997Z,72.83
2022-12-01T02:02:17.010Z,75.00
2022-12-01T02:04:47.977Z,71.40
2022-12-01T02:07:17.516Z,74.70
2022-12-01T02:09:46.149Z,83.23
2022-12-01T02:12:17.650Z,76.93
2022-12-01T02:14:57.449Z,74.13
2022-12-01T02:17:28.850Z,72.97
2022-12-01T02:20:09.646Z,69.23
2022-12-01T02:22:40.070Z,80.93
2022-12-01T02:25:22.659Z,78.70
2022-12-01T02:28:02.611Z,79.93
2022-12-01T02:30:38.253Z,82.63
2022-12-01T02:33:07.666Z,78.13
2022-12-01T02:35:37.632Z,77.13
2022-12-01T02:38:10.015Z,77.40
2022-12-01T02:40:40.503Z,78.20
2022-12-01T02:43:09.861Z,76.53
2022-12-01T02:45:41.630Z,76.07
2022-12-01T02:48:11.071Z,79.33
2022-12-01T02:50:39.694Z,75.87
2022-12-01T02:53:08.363Z,77.00
2022-12-01T02:55:36.940Z,79.93
2022-12-01T02:58:14.353Z,79.10
2022-12-01T03:00:44.184Z,77.33
2022-12-01T03:03:20.486Z,75.73
2022-12-01T03:05:50.684Z,77.50
2022-12-01T03:08:21.639Z,79.87
2022-12-01T03:10:50.602Z,73.53
2022-12-01T03:13:20.885Z,87.10
2022-12-01T03:15:54.292Z,74.77
2022-12-01T03:18:26.228Z,77.80
2022-12-01T03:20:56.413Z,71.03
2022-12-01T03:23:25.565Z,82.53
2022-12-01T03:25:54.292Z,78.03
2022-12-01T03:28:24.077Z,77.87
2022-12-01T03:30:54.330Z,83.00
2022-12-01T03:33:26.016Z,82.00
2022-12-01T03:35:55.368Z,77.23
2022-12-01T03:38:24.570Z,80.27
2022-12-01T03:40:53.147Z,75.30
2022-12-01T03:43:25.033Z,77.13
2022-12-01T03:45:57.009Z,71.90
2022-12-01T03:48:28.358Z,80.87
2022-12-01T03:50:59.244Z,74.57
2022-12-01T03:53:28.054Z,81.57
2022-12-01T03:55:59.421Z,75.10
2022-12-01T03:58:28.813Z,77.30
2022-12-01T04:00:59.261Z,84.20
2022-12-01T04:03:30.902Z,83.33
2022-12-01T04:05:59.404Z,82.80
2022-12-01T04:08:31.343Z,78.10
2022-12-01T04:10:59.658Z,79.93
2022-12-01T04:13:27.053Z,72.47
2022-12-01T04:15:55.709Z,73.57
2022-12-01T04:18:26.020Z,78.80
2022-12-01T04:20:54.672Z,75.07
2022-12-01T04:23:43.947Z,82.40
2022-12-01T04:26:15.699Z,82.23
2022-12-01T04:28:45.078Z,80.20
2022-12-01T04:31:13.827Z,79.07
2022-12-01T04:33:43.634Z,81.47
2022-12-01T04:36:12.395Z,79.93
2022-12-01T04:38:41.044Z,85.90
2022-12-01T04:41:15.432Z,80.77
2022-12-01T04:43:43.863Z,83.33
2022-12-01T04:46:12.551Z,76.10
2022-12-01T04:48:41.019Z,84.73
2022-12-01T04:51:10.998Z,86.63
2022-12-01T04:53:39.552Z,82.93
2022-12-01T04:56:13.982Z,78.10
2022-12-01T04:58:42.523Z,81.03
2022-12-01T05:01:11.685Z,85.13
2022-12-01T05:03:40.327Z,76.73
2022-12-01T05:06:09.492Z,88.17
2022-12-01T05:08:39.321Z,75.60
2022-12-01T05:11:08.204Z,80.90
2022-12-01T05:13:36.678Z,80.03
2022-12-01T05:16:09.054Z,74.77
2022-12-01T05:18:37.569Z,81.40
2022-12-01T05:21:05.250Z,78.20
2022-12-01T05:23:34.240Z,76.10
2022-12-01T05:26:04.291Z,75.83
2022-12-01T05:28:32.866Z,79.27
2022-12-01T05:31:01.439Z,82.20
2022-12-01T05:33:30.083Z,80.37
2022-12-01T05:35:58.599Z,81.97
2022-12-01T05:38:27.018Z,82.07
2022-12-01T05:40:55.772Z,75.70
2022-12-01T05:43:29.289Z,77.60
2022-12-01T05:45:58.379Z,74.53
2022-12-01T05:48:26.833Z,79.10
2022-12-01T05:50:55.531Z,72.37
2022-12-01T05:53:24.018Z,73.03
2022-12-01T05:55:58.242Z,83.53
2022-12-01T05:58:28.276Z,81.57
2022-12-01T06:00:56.949Z,77.67
2022-12-01T06:03:25.419Z,79.63
2022-12-01T06:05:53.747Z,80.53
2022-12-01T06:08:22.305Z,83.90
2022-12-01T06:10:50.715Z,73.87
2022-12-01T06:13:19.496Z,84.13
2022-12-01T06:15:57.081Z,78.37
2022-12-01T06:18:25.854Z,81.93
2022-12-01T06:20:54.396Z,82.07
2022-12-01T06:23:27.578Z,90.60
2022-12-01T06:25:58.699Z,79.37
2022-12-01T06:28:27.184Z,91.97
2022-12-01T06:31:02.941Z,87.20
2022-12-01T06:33:32.029Z,84.73
2022-12-01T06:36:00.772Z,83.87
2022-12-01T06:38:29.215Z,85.17
2022-12-01T06:41:03.597Z,82.67
2022-12-01T06:43:33.871Z,83.13
2022-12-01T06:46:06.308Z,81.50
2022-12-01T06:48:35.227Z,87.57
2022-12-01T06:51:10.751Z,91.00
2022-12-01T06:53:47.021Z,86.13
2022-12-01T06:56:16.382Z,87.43
2022-12-01T06:58:45.389Z,86.23
2022-12-01T07:01:15.574Z,94.80
2022-12-01T07:03:44.331Z,87.80
2022-12-01T07:06:12.732Z,92.53
2022-12-01T07:08:41.230Z,87.17
2022-12-01T07:11:09.956Z,88.00
2022-12-01T07:13:38.457Z,83.50
2022-12-01T07:16:07.383Z,83.10
2022-12-01T07:18:38.751Z,90.17
2022-12-01T07:21:09.962Z,84.43
2022-12-01T07:24:10.860Z,85.73
2022-12-01T07:34:13.378Z,84.83
2022-12-01T07:36:54.143Z,86.67
2022-12-01T07:39:41.238Z,92.80
2022-12-01T07:42:10.553Z,88.90
2022-12-01T07:44:42.019Z,90.53
2022-12-01T07:47:10.635Z,89.13
2022-12-01T07:49:39.778Z,101.03
2022-12-01T07:52:09.838Z,86.80
2022-12-01T07:54:38.371Z,83.50
2022-12-01T07:57:17.532Z,91.73
2022-12-01T07:59:46.511Z,87.47
2022-12-01T08:02:15.841Z,90.13
2022-12-01T08:04:44.937Z,90.70
2022-12-01T08:07:15.123Z,85.97
2022-12-01T08:09:46.435Z,89.90
2022-12-01T08:12:15.159Z,87.27
2022-12-01T08:14:44.118Z,94.10
2022-12-01T08:17:12.824Z,87.43
2022-12-01T08:19:44.516Z,83.60
2022-12-01T08:22:12.988Z,92.73
2022-12-01T08:24:43.340Z,89.53
2022-12-01T08:27:11.798Z,89.83
2022-12-01T08:29:42.204Z,82.37
2022-12-01T08:32:10.880Z,100.37
2022-12-01T08:34:39.847Z,87.47
2022-12-01T08:37:10.585Z,85.17
2022-12-01T08:39:39.684Z,88.60
2022-12-01T08:42:10.789Z,90.00
2022-12-01T08:44:42.212Z,81.57
2022-12-01T08:47:13.174Z,84.43
2022-12-01T08:49:46.174Z,87.50
2022-12-01T08:52:15.097Z,83.53
2022-12-01T08:54:43.503Z,77.60
2022-12-01T08:57:13.514Z,86.80
2022-12-01T08:59:42.694Z,89.33
2022-12-01T09:02:12.502Z,88.00
2022-12-01T09:04:41.817Z,84.23
2022-12-01T09:07:15.175Z,88.50
2022-12-01T09:09:43.774Z,95.97
2022-12-01T09:12:16.927Z,81.67
2022-12-01T09:14:48.408Z,90.13
2022-12-01T09:17:17.333Z,83.67
2022-12-01T09:19:46.080Z,79.50
2022-12-01T09:22:16.512Z,84.33
2022-12-01T09:24:45.229Z,85.73
2022-12-01T09:27:14.110Z,93.97
2022-12-01T09:29:44.167Z,83.03
2022-12-01T09:32:12.938Z,87.53
2022-12-01T09:34:41.753Z,87.70
2022-12-01T09:37:10.199Z,78.67
2022-12-01T09:39:41.817Z,98.47
2022-12-01T09:42:12.991Z,88.07
2022-12-01T09:44:41.963Z,79.70
2022-12-01T09:47:13.695Z,90.87
2022-12-01T09:49:48.478Z,85.17
2022-12-01T09:52:18.547Z,90.90
2022-12-01T09:54:47.153Z,92.60
2022-12-01T09:57:17.631Z,80.90
2022-12-01T09:59:46.370Z,82.43
2022-12-01T10:02:28.000Z,94.00
2022-12-01T10:05:02.866Z,90.07
2022-12-01T10:07:32.729Z,83.73
2022-12-01T10:10:01.645Z,86.80
2022-12-01T10:12:31.815Z,86.87
2022-12-01T10:15:05.923Z,85.87
2022-12-01T10:17:38.441Z,88.60
2022-12-01T10:20:08.576Z,82.97
2022-12-01T10:22:45.305Z,87.30
2022-12-01T10:25:16.965Z,88.03
2022-12-01T10:27:50.202Z,81.63
2022-12-01T10:30:33.014Z,93.23
2022-12-01T10:33:04.003Z,90.43
2022-12-01T10:35:40.519Z,79.77
2022-12-01T10:38:14.852Z,82.10
2022-12-01T10:40:43.625Z,77.80
2022-12-01T10:43:12.453Z,80.07
2022-12-01T10:45:42.535Z,85.13
2022-12-01T10:48:16.643Z,84.03
2022-12-01T10:50:48.833Z,83.23
2022-12-01T10:53:31.155Z,82.83
2022-12-01T10:56:01.410Z,80.93
2022-12-01T10:58:29.957Z,80.30
2022-12-01T11:01:00.345Z,75.40
2022-12-01T11:03:32.371Z,85.23
2022-12-01T11:06:03.541Z,85.93
2022-12-01T11:08:36.264Z,80.60
2022-12-01T11:11:16.335Z,77.53
2022-12-01T11:13:44.913Z,75.23
2022-12-01T11:16:13.750Z,76.07
2022-12-01T11:18:43.755Z,77.10
2022-12-01T11:21:15.219Z,77.93
2022-12-01T11:23:47.031Z,84.33
2022-12-01T11:26:16.627Z,78.80
2022-12-01T11:28:53.879Z,75.13
2022-12-01T11:31:25.101Z,84.57
2022-12-01T11:33:58.739Z,79.37
2022-12-01T11:36:28.657Z,73.00
2022-12-01T11:38:57.885Z,72.27
2022-12-01T11:41:29.272Z,88.50
2022-12-01T11:44:02.763Z,73.07
2022-12-01T11:46:33.459Z,76.17
2022-12-01T11:49:06.427Z,73.07
2022-12-01T11:51:37.710Z,78.50
2022-12-01T11:54:07.235Z,73.67
2022-12-01T11:56:35.731Z,78.60
2022-12-01T11:59:07.418Z,74.97
2022-12-01T12:01:38.092Z,73.57
2022-12-01T12:04:11.565Z,72.43
2022-12-01T12:06:44.259Z,71.87
2022-12-01T12:09:26.010Z,67.23
2022-12-01T12:11:56.062Z,67.73
2022-12-01T12:14:27.670Z,63.30
2022-12-01T12:17:01.102Z,68.67
2022-12-01T12:20:06.278Z,68.17
2022-12-01T12:22:26.829Z,62.63
2022-12-01T12:25:02.164Z,65.83
2022-12-01T12:27:34.182Z,60.50
2022-12-01T12:30:06.370Z,62.40
2022-12-01T12:32:39.667Z,60.17
2022-12-01T12:35:17.215Z,55.47
2022-12-01T12:37:46.803Z,55.27
2022-12-01T12:40:24.033Z,56.33
2022-12-01T12:42:54.975Z,51.33
2022-12-01T12:45:25.555Z,51.23
2022-12-01T12:48:02.260Z,53.63
2022-12-01T12:50:36.160Z,54.07
2022-12-01T12:53:06.806Z,58.27
2022-12-01T12:55:37.233Z,52.77
2022-12-01T12:58:11.033Z,52.47
2022-12-01T13:00:41.414Z,49.53
2022-12-01T13:03:12.732Z,53.37
2022-12-01T13:05:43.792Z,46.63
2022-12-01T13:08:13.600Z,52.97
2022-12-01T13:10:44.504Z,50.10
2022-12-01T13:13:20.597Z,49.13
2022-12-01T13:15:49.595Z,47.90
2022-12-01T13:18:21.220Z,48.93
2022-12-01T13:20:51.354Z,45.17
2022-12-01T13:23:21.267Z,40.97
2022-12-01T13:25:54.625Z,45.40
2022-12-01T13:28:24.173Z,41.17
2022-12-01T13:31:02.735Z,39.43
2022-12-01T13:33:31.539Z,38.90
2022-12-01T13:36:38.167Z,44.27
2022-12-01T13:38:54.922Z,41.83
2022-12-01T13:41:25.257Z,43.27
2022-12-01T13:43:55.676Z,41.43
2022-12-01T13:46:24.931Z,44.60
2022-12-01T13:48:54.170Z,47.60
2022-12-01T13:51:24.282Z,39.67
2022-12-01T13:54:15.235Z,44.60
2022-12-01T13:56:47.881Z,46.23
2022-12-01T13:59:35.107Z,43.87
2022-12-01T14:02:16.256Z,43.17
2022-12-01T14:04:44.971Z,49.57
2022-12-01T14:07:31.051Z,48.23
2022-12-01T14:10:09.065Z,48.97
2022-12-01T14:12:49.030Z,39.73
2022-12-01T14:15:43.329Z,41.10
2022-12-01T14:18:31.310Z,44.87
2022-12-01T14:21:04.897Z,40.40
2022-12-01T14:23:42.778Z,39.60
2022-12-01T14:26:16.881Z,40.93
2022-12-01T14:29:04.038Z,38.70
2022-12-01T14:31:49.986Z,37.60
2022-12-01T14:34:20.064Z,36.83
2022-12-01T14:36:51.941Z,35.33
2022-12-01T14:39:21.410Z,33.80
2022-12-01T14:41:52.147Z,33.80
2022-12-01T14:44:24.079Z,33.57
2022-12-01T14:46:54.000Z,31.73
2022-12-01T14:49:27.797Z,31.77
2022-12-01T14:52:02.553Z,30.50
2022-12-01T14:54:32.161Z,30.60
2022-12-01T14:57:06.855Z,30.07
2022-12-01T14:59:36.722Z,37.47
2022-12-01T15:02:09.276Z,31.97
2022-12-01T15:04:38.255Z,29.33
2022-12-01T15:07:06.680Z,33.40
2022-12-01T15:09:45.907Z,33.83
2022-12-01T15:12:28.587Z,28.00
2022-12-01T15:14:56.998Z,33.30
2022-12-01T15:17:29.848Z,34.00
2022-12-01T15:19:58.244Z,34.33
2022-12-01T15:22:28.405Z,31.87
2022-12-01T15:24:56.766Z,30.00
2022-12-01T15:27:27.363Z,29.53
2022-12-01T15:29:55.708Z,30.53
2022-12-01T15:32:24.786Z,29.27
2022-12-01T15:34:54.099Z,30.50
2022-12-01T15:37:23.865Z,31.77
2022-12-01T15:39:53.472Z,33.57
2022-12-01T15:42:24.522Z,32.77
2022-12-01T15:45:00.789Z,28.17
2022-12-01T15:47:32.838Z,32.70
2022-12-01T15:50:01.290Z,34.47
2022-12-01T15:52:29.728Z,32.80
2022-12-01T15:54:58.202Z,31.17
2022-12-01T15:57:26.659Z,33.23
2022-12-01T15:59:55.440Z,32.87
2022-12-01T16:02:29.929Z,34.37
2022-12-01T16:05:02.025Z,32.83
2022-12-01T16:08:04.447Z,29.40
2022-12-01T16:10:28.050Z,34.47
2022-12-01T16:12:58.944Z,33.00
2022-12-01T16:15:27.420Z,31.67
2022-12-01T16:17:57.147Z,33.43
2022-12-01T16:20:26.704Z,34.23
2022-12-01T16:22:58.917Z,39.87
2022-12-01T16:25:31.758Z,37.70
2022-12-01T16:28:00.318Z,31.20
2022-12-01T16:30:30.242Z,34.77
2022-12-01T16:33:06.283Z,36.27
2022-12-01T16:35:34.933Z,38.00
2022-12-01T16:38:03.410Z,33.03
2022-12-01T16:40:31.869Z,31.50
2022-12-01T16:43:00.248Z,33.83
2022-12-01T16:45:28.740Z,33.70
2022-12-01T16:47:57.180Z,34.53
2022-12-01T16:50:26.981Z,32.83
2022-12-01T16:52:55.378Z,33.30
2022-12-01T16:55:28.879Z,35.60
2022-12-01T16:57:57.335Z,34.80
2022-12-01T17:00:29.739Z,37.37
2022-12-01T17:02:58.625Z,34.03
2022-12-01T17:05:28.528Z,34.57
2022-12-01T17:07:57.119Z,34.13
2022-12-01T17:10:25.586Z,34.50
2022-12-01T17:12:54.128Z,32.40
2022-12-01T17:15:22.569Z,36.07
2022-12-01T17:17:51.420Z,36.07
2022-12-01T17:20:19.975Z,38.73
2022-12-01T17:22:49.825Z,34.60
2022-12-01T17:25:18.290Z,33.63
2022-12-01T17:27:46.869Z,33.80
2022-12-01T17:30:15.510Z,35.37
2022-12-01T17:32:43.862Z,35.33
2022-12-01T17:35:12.882Z,36.43
2022-12-01T17:37:41.244Z,43.07
2022-12-01T17:40:13.915Z,34.37
2022-12-01T17:42:48.558Z,35.43
2022-12-01T17:45:18.772Z,40.50
2022-12-01T17:47:47.174Z,37.13
2022-12-01T17:50:15.877Z,39.40
2022-12-01T17:52:44.511Z,43.90
2022-12-01T17:55:14.829Z,41.80
2022-12-01T17:57:43.528Z,37.17
2022-12-01T18:00:12.807Z,45.33
2022-12-01T18:02:41.470Z,41.50
2022-12-01T18:05:12.074Z,43.70
2022-12-01T18:07:41.434Z,43.97
2022-12-01T18:10:10.644Z,39.63
2022-12-01T18:12:40.580Z,34.67
2022-12-01T18:15:09.551Z,37.83
2022-12-01T18:17:38.111Z,39.13
2022-12-01T18:20:06.912Z,44.57
2022-12-01T18:22:35.589Z,44.03
2022-12-01T18:25:04.132Z,42.30
2022-12-01T18:27:32.797Z,43.57
2022-12-01T18:30:02.665Z,37.57
2022-12-01T18:32:31.003Z,42.20
2022-12-01T18:34:59.528Z,48.43
2022-12-01T18:37:28.100Z,41.20
2022-12-01T18:39:56.771Z,40.83
2022-12-01T18:42:25.252Z,49.73
2022-12-01T18:44:53.910Z,53.10
2022-12-01T18:47:23.772Z,64.13
2022-12-01T18:49:55.387Z,67.03
2022-12-01T18:52:23.866Z,57.90
2022-12-01T18:54:53.242Z,56.13
2022-12-01T18:57:21.620Z,47.77
2022-12-01T18:59:50.770Z,53.10
2022-12-01T19:02:37.571Z,46.40
2022-12-01T19:05:31.114Z,47.37
2022-12-01T19:11:06.162Z,47.80
2022-12-01T19:13:35.291Z,53.27
2022-12-01T19:16:07.145Z,53.40
2022-12-01T19:18:44.747Z,49.77
2022-12-01T19:21:15.363Z,46.00
2022-12-01T19:23:43.837Z,45.83
2022-12-01T19:26:14.793Z,46.03
2022-12-01T19:28:45.587Z,40.67
2022-12-01T19:31:14.725Z,39.37
2022-12-01T19:33:43.229Z,46.33
2022-12-01T19:36:12.362Z,39.80
2022-12-01T19:38:42.318Z,40.77
2022-12-01T19:41:29.660Z,44.90
2022-12-01T19:44:03.983Z,40.50
2022-12-01T19:46:32.551Z,42.17
2022-12-01T19:49:01.728Z,43.33
2022-12-01T19:51:48.549Z,45.53
2022-12-01T19:57:10.597Z,45.83
2022-12-01T19:59:39.218Z,47.47
2022-12-01T20:02:08.051Z,45.37
2022-12-01T20:04:48.569Z,51.23
2022-12-01T20:07:21.441Z,48.30
2022-12-01T20:09:59.166Z,47.50
2022-12-01T20:12:28.828Z,42.70
2022-12-01T20:14:58.022Z,43.50
2022-12-01T20:17:26.742Z,41.77
2022-12-01T20:19:55.199Z,44.20
2022-12-01T20:22:30.229Z,47.43
2022-12-01T20:25:08.057Z,42.77
2022-12-01T20:27:39.811Z,41.03
2022-12-01T20:33:05.376Z,40.60
2022-12-01T20:36:15.081Z,40.97
2022-12-01T20:38:56.128Z,42.07
2022-12-01T20:41:35.545Z,43.23
2022-12-01T20:44:09.351Z,40.20
2022-12-01T20:46:50.481Z,44.40
2022-12-01T20:49:20.265Z,44.10
2022-12-01T20:55:24.409Z,40.03
2022-12-01T20:58:00.373Z,40.30
2022-12-01T21:03:47.487Z,42.20
2022-12-01T21:06:21.894Z,37.00
2022-12-01T21:09:10.295Z,39.57
2022-12-01T21:12:10.322Z,44.83
2022-12-01T21:14:42.847Z,38.07
2022-12-01T21:17:14.861Z,45.53
2022-12-01T21:19:52.559Z,45.13
2022-12-01T21:22:28.587Z,41.17
2022-12-01T21:25:06.888Z,42.70
2022-12-01T21:27:35.375Z,38.93
2022-12-01T21:30:05.203Z,35.60
2022-12-01T21:32:44.159Z,43.10
2022-12-01T21:35:17.815Z,42.83
2022-12-01T21:37:47.048Z,38.07
2022-12-01T21:40:19.311Z,39.57
2022-12-01T21:42:48.761Z,41.17
2022-12-01T21:45:24.553Z,39.47
2022-12-01T21:47:53.098Z,36.03
2022-12-01T21:50:28.072Z,41.73
2022-12-01T21:53:02.313Z,39.90
2022-12-01T21:55:38.868Z,42.00
2022-12-01T21:58:36.491Z,38.40
2022-12-01T22:01:11.480Z,40.40
2022-12-01T22:03:40.510Z,35.90
2022-12-01T22:06:29.458Z,42.33
2022-12-01T22:09:00.139Z,38.47
2022-12-01T22:11:32.937Z,41.10
2022-12-01T22:14:04.295Z,41.10
2022-12-01T22:16:35.524Z,41.03
2022-12-01T22:19:04.644Z,41.67
2022-12-01T22:21:37.098Z,41.67
2022-12-01T22:24:23.546Z,35.13
2022-12-01T22:26:53.201Z,35.80
2022-12-01T22:29:27.604Z,40.77
2022-12-01T22:32:01.860Z,39.30
2022-12-01T22:34:30.233Z,38.30
2022-12-01T22:36:58.611Z,37.70
2022-12-01T22:39:27.840Z,45.57
2022-12-01T22:41:57.423Z,39.63
2022-12-01T22:44:26.996Z,39.53
2022-12-01T22:46:55.966Z,39.23
2022-12-01T22:49:28.787Z,37.53
2022-12-01T22:52:08.873Z,39.83
2022-12-01T22:54:40.315Z,36.87
2022-12-01T22:57:15.082Z,42.70
2022-12-01T22:59:44.028Z,44.33
2022-12-01T23:02:21.000Z,42.33
2022-12-01T23:04:53.086Z,39.70
2022-12-01T23:07:28.215Z,39.67
2022-12-01T23:09:58.209Z,38.87
2022-12-01T23:12:28.847Z,39.77
2022-12-01T23:14:57.943Z,39.40
2022-12-01T23:17:29.294Z,48.50
2022-12-01T23:20:06.725Z,41.63
2022-12-01T23:22:35.347Z,46.23
2022-12-01T23:25:04.322Z,42.30
2022-12-01T23:27:32.753Z,43.20
2022-12-01T23:30:01.343Z,41.47
2022-12-01T23:32:29.907Z,46.90
2022-12-01T23:35:00.713Z,42.93
2022-12-01T23:37:34.140Z,45.77
2022-12-01T23:40:02.650Z,48.50
2022-12-01T23:42:31.222Z,48.43
2022-12-01T23:45:00.097Z,49.53
2022-12-01T23:47:29.156Z,55.83
2022-12-01T23:50:01.882Z,51.57
2022-12-01T23:52:36.422Z,51.53
2022-12-01T23:55:06.629Z,54.07
2022-12-01T23:57:35.020Z,55.17
